createdAt,value
2022-08-11T00:01:32.587Z,1.8
2022-08-11T00:07:16.154Z,1.9
2022-08-11T00:13:00.888Z,1.9
2022-08-11T00:18:46.309Z,1.9
2022-08-11T00:24:49.394Z,1.8
2022-08-11T00:30:39.250Z,1.8
2022-08-11T00:36:27.527Z,1.8
2022-08-11T00:42:16.966Z,2
2022-08-11T00:48:07.124Z,2
2022-08-11T00:53:56.711Z,1.8
2022-08-11T00:59:53.774Z,1.9
2022-08-11T01:05:46.240Z,2
2022-08-11T01:11:56.331Z,1.8
2022-08-11T01:18:00.059Z,1.8
2022-08-11T01:23:56.099Z,1.9
2022-08-11T01:29:51.378Z,1.9
2022-08-11T01:35:42.811Z,1.8
2022-08-11T01:41:37.292Z,1.9
2022-08-11T01:47:28.106Z,1.8
2022-08-11T01:53:23.023Z,1.7
2022-08-11T01:59:11.192Z,1.8
2022-08-11T02:04:57.946Z,2
2022-08-11T02:10:52.395Z,1.8
2022-08-11T02:16:44.472Z,1.8
2022-08-11T02:22:33.189Z,1.7
2022-08-11T02:28:21.248Z,1.9
2022-08-11T02:34:08.643Z,1.7
2022-08-11T02:39:57.280Z,2.1
2022-08-11T02:45:43.794Z,1.8
2022-08-11T02:51:34.228Z,2.1
2022-08-11T02:57:22.375Z,1.9
2022-08-11T03:03:11.703Z,2
2022-08-11T03:09:02.069Z,1.8
2022-08-11T03:14:50.003Z,1.9
2022-08-11T03:20:40.318Z,2.2
2022-08-11T03:26:33.573Z,1.9
2022-08-11T03:32:21.940Z,1.9
2022-08-11T03:38:08.554Z,1.8
2022-08-11T03:43:59.910Z,1.9
2022-08-11T03:49:48.605Z,1.9
2022-08-11T03:55:38.853Z,2.1
2022-08-11T04:01:33.789Z,2.1
2022-08-11T04:07:34.175Z,2
2022-08-11T04:13:37.449Z,2
2022-08-11T04:19:31.827Z,1.8
2022-08-11T04:25:30.695Z,2
2022-08-11T04:31:44.020Z,1.9
2022-08-11T04:37:39.147Z,2.9
2022-08-11T04:44:02.313Z,3.3
2022-08-11T04:50:02.709Z,3.3
2022-08-11T04:55:54.342Z,3.7
2022-08-11T05:01:41.849Z,3.8
2022-08-11T05:07:36.863Z,3.5
2022-08-11T05:13:29.799Z,3.9
2022-08-11T05:19:18.335Z,3.9
2022-08-11T05:25:06.152Z,3.7
2022-08-11T05:30:52.111Z,4
2022-08-11T05:36:39.126Z,4
2022-08-11T05:42:31.448Z,4.1
2022-08-11T05:48:16.094Z,4
2022-08-11T05:54:02.559Z,4.2
2022-08-11T05:59:51.496Z,4
2022-08-11T06:05:45.298Z,4.1
2022-08-11T06:11:43.377Z,3.8
2022-08-11T06:17:39.381Z,3.8
2022-08-11T06:23:25.143Z,3.9
2022-08-11T06:29:09.527Z,3.8
2022-08-11T06:35:06.408Z,3.8
2022-08-11T06:40:52.939Z,4
2022-08-11T06:46:36.743Z,3.8
2022-08-11T06:52:34.348Z,3.8
2022-08-11T06:58:20.402Z,3.6
2022-08-11T07:04:06.552Z,3.6
2022-08-11T07:09:59.492Z,3.7
2022-08-11T07:16:11.926Z,3.5
2022-08-11T07:22:00.718Z,3.3
2022-08-11T07:27:47.958Z,3.3
2022-08-11T07:34:06.325Z,2.9
2022-08-11T07:39:38.675Z,3.3
2022-08-11T07:45:24.940Z,3
2022-08-11T07:51:08.725Z,3
2022-08-11T07:57:07.703Z,2.9
2022-08-11T08:02:56.012Z,2.7
2022-08-11T08:08:41.925Z,2.6
2022-08-11T08:14:26.454Z,2.6
2022-08-11T08:20:12.454Z,2.5
2022-08-11T08:25:56.002Z,2.5
2022-08-11T08:31:39.844Z,2.6
2022-08-11T08:37:45.183Z,2.7
2022-08-11T08:43:29.366Z,2.7
2022-08-11T08:49:20.929Z,2.4
2022-08-11T08:55:06.261Z,2.8
2022-08-11T09:00:51.999Z,2.7
2022-08-11T09:06:36.104Z,2.6
2022-08-11T09:12:36.184Z,2.5
2022-08-11T09:18:21.862Z,2.7
2022-08-11T09:24:24.953Z,2.5
2022-08-11T09:30:11.598Z,2.7
2022-08-11T09:35:54.945Z,2.8
2022-08-11T09:41:55.992Z,2.6
2022-08-11T09:47:44.430Z,2.7
2022-08-11T09:53:40.675Z,2.8
2022-08-11T09:59:29.873Z,2.6
2022-08-11T10:05:16.301Z,2.5
2022-08-11T10:10:59.967Z,2.4
2022-08-11T10:16:43.943Z,2.7
2022-08-11T10:22:33.174Z,2.4
2022-08-11T10:28:33.278Z,2.3
2022-08-11T10:34:28.440Z,2.2
2022-08-11T10:40:15.769Z,2.3
2022-08-11T10:45:59.391Z,2.1
2022-08-11T10:51:53.712Z,2
2022-08-11T10:57:42.159Z,2.3
2022-08-11T11:03:37.522Z,2.2
2022-08-11T11:09:24.309Z,2
2022-08-11T11:15:18.914Z,2.2
2022-08-11T11:21:05.583Z,2.3
2022-08-11T11:26:53.163Z,2.3
2022-08-11T11:32:45.357Z,2.3
2022-08-11T11:38:32.582Z,2.1
2022-08-11T11:44:17.395Z,2
2022-08-11T11:50:01.556Z,2
2022-08-11T11:55:45.688Z,1.9
2022-08-11T12:01:29.631Z,1.9
2022-08-11T12:07:13.787Z,1.9
2022-08-11T12:12:57.675Z,2.1
2022-08-11T12:18:42.322Z,1.9
2022-08-11T12:24:30.797Z,2.2
2022-08-11T12:30:15.077Z,2.1
2022-08-11T12:36:03.153Z,2.2
2022-08-11T12:41:48.933Z,2
2022-08-11T12:47:34.123Z,2
2022-08-11T12:53:18.052Z,2
2022-08-11T12:59:03.286Z,1.7
2022-08-11T13:04:52.307Z,2
2022-08-11T13:10:35.976Z,2
2022-08-11T13:16:24.995Z,1.9
2022-08-11T13:22:08.870Z,2
2022-08-11T13:27:54.865Z,1.9
2022-08-11T13:33:43.371Z,2
2022-08-11T13:39:28.719Z,2.1
2022-08-11T13:45:15.974Z,2.1
2022-08-11T13:50:59.970Z,2.1
2022-08-11T13:56:45.697Z,2.3
2022-08-11T14:02:32.162Z,2.1
2022-08-11T14:08:31.886Z,2.2
2022-08-11T14:14:23.939Z,2.1
2022-08-11T14:20:38.951Z,2.2
2022-08-11T14:26:14.183Z,2.3
2022-08-11T14:31:58.522Z,2.1
2022-08-11T14:37:41.932Z,2.4
2022-08-11T14:44:03.332Z,2.4
2022-08-11T14:49:30.735Z,2.4
2022-08-11T14:55:15.025Z,2.3
2022-08-11T15:00:59.555Z,2.4
2022-08-11T15:06:44.245Z,2.6
2022-08-11T15:12:34.333Z,2.5
2022-08-11T15:18:18.679Z,2.5
2022-08-11T15:24:02.442Z,2.4
2022-08-11T15:29:47.178Z,2.4
2022-08-11T15:35:40.679Z,2.1
2022-08-11T15:41:26.858Z,2.1
2022-08-11T15:47:11.123Z,2.1
2022-08-11T15:52:57.839Z,2.3
2022-08-11T15:58:44.102Z,2.1
2022-08-11T16:04:29.002Z,1.9
2022-08-11T16:10:20.811Z,1.9
2022-08-11T16:16:04.690Z,2.2
2022-08-11T16:21:49.668Z,1.8
2022-08-11T16:27:34.164Z,2.1
2022-08-11T16:33:49.337Z,1.8
2022-08-11T16:39:23.807Z,1.9
2022-08-11T16:45:07.998Z,1.9
2022-08-11T16:50:51.975Z,1.6
2022-08-11T16:56:36.687Z,1.6
2022-08-11T17:02:20.771Z,1.7
2022-08-11T17:08:06.078Z,1.7
2022-08-11T17:13:51.732Z,1.6
2022-08-11T17:20:39.115Z,1.7
2022-08-11T17:25:59.516Z,1.7
2022-08-11T17:31:43.316Z,1.4
2022-08-11T17:37:28.550Z,1.7
2022-08-11T17:43:12.469Z,1.7
2022-08-11T17:48:57.294Z,1.7
2022-08-11T17:54:43.965Z,1.7
2022-08-11T18:00:28.815Z,1.8
2022-08-11T18:06:15.092Z,1.8
2022-08-11T18:12:11.295Z,1.9
2022-08-11T18:17:55.889Z,2.6
2022-08-11T18:23:47.704Z,2.3
2022-08-11T18:29:42.514Z,2.7
2022-08-11T18:35:25.883Z,2.5
2022-08-11T18:41:11.519Z,2.8
2022-08-11T18:46:58.644Z,2.7
2022-08-11T18:52:47.102Z,2.3
2022-08-11T18:58:32.458Z,2.5
2022-08-11T19:04:20.837Z,2.6
2022-08-11T19:10:07.971Z,2.5
2022-08-11T19:15:51.683Z,2.5
2022-08-11T19:21:35.639Z,2.5
2022-08-11T19:27:20.236Z,2.5
2022-08-11T19:33:03.826Z,2.3
2022-08-11T19:38:47.287Z,2.4
2022-08-11T19:44:31.970Z,2.3
2022-08-11T19:50:25.355Z,2.3
2022-08-11T19:56:09.898Z,2.3
2022-08-11T20:02:13.070Z,2.4
2022-08-11T20:07:58.888Z,2.6
2022-08-11T20:13:45.365Z,2.7
2022-08-11T20:19:54.849Z,2.7
2022-08-11T20:25:37.847Z,2.7
2022-08-11T20:31:22.752Z,2.7
2022-08-11T20:37:07.436Z,2.6
2022-08-11T20:42:52.586Z,2.6
2022-08-11T20:48:37.279Z,2.7
2022-08-11T20:54:38.052Z,2.7
2022-08-11T21:00:39.057Z,2.7
2022-08-11T21:06:33.903Z,2.8
2022-08-11T21:12:20.594Z,3.1
2022-08-11T21:18:08.835Z,3
2022-08-11T21:23:52.915Z,2.8
2022-08-11T21:29:37.469Z,3.1
2022-08-11T21:35:21.163Z,3.2
2022-08-11T21:41:05.598Z,2.9
2022-08-11T21:46:50.098Z,2.9
2022-08-11T21:52:33.614Z,3.2
2022-08-11T21:58:17.351Z,3
2022-08-11T22:04:04.578Z,3
2022-08-11T22:09:49.207Z,3
2022-08-11T22:15:32.892Z,3.1
2022-08-11T22:21:56.921Z,3.4
2022-08-11T22:27:20.036Z,3
2022-08-11T22:33:03.980Z,3.1
2022-08-11T22:38:48.451Z,3.3
2022-08-11T22:44:31.888Z,3.1
2022-08-11T22:50:15.600Z,2.8
2022-08-11T22:55:59.090Z,3
2022-08-11T23:01:54.867Z,2.9
2022-08-11T23:07:52.038Z,2.8
2022-08-11T23:13:36.460Z,2.8
2022-08-11T23:20:01.820Z,2.6
2022-08-11T23:25:23.606Z,2.8
2022-08-11T23:31:08.822Z,2.8
2022-08-11T23:36:52.471Z,2.7
2022-08-11T23:42:38.026Z,2.8
2022-08-11T23:48:24.945Z,3
2022-08-11T23:54:09.675Z,2.6
2022-08-11T23:59:53.159Z,2.9
